Time;durP1;ratioP1;P1;durP2;ratioP2;P2;SDS_P1;SDS_P2;PMS_P1;PMS_P2;Temp;Humidity;BMP_temperature;BMP_pressure;BME280_temperature;BME280_humidity;BME280_pressure;Samples;Min_cycle;Max_cycle;Signal;HPM_P1;HPM_P2
2023/05/12 00:01:13;;;;;;;1.15;1.15;;;;;;;;;;5141357;27;20237;-64
2023/05/12 00:03:40;;;;;;;1.00;1.00;;;;;;;;;;5141412;27;20237;-65
2023/05/12 00:06:07;;;;;;;1.27;1.10;;;;;;;;;;5141339;27;20210;-65
2023/05/12 00:08:35;;;;;;;1.00;1.00;;;;;;;;;;5141351;27;20202;-65
2023/05/12 00:11:03;;;;;;;1.08;1.08;;;;;;;;;;5141278;27;20213;-64
2023/05/12 00:13:30;;;;;;;1.40;1.30;;;;;;;;;;5141145;27;20198;-64
2023/05/12 00:15:59;;;;;;;1.02;1.02;;;;;;;;;;5140939;27;20213;-64
2023/05/12 00:18:27;;;;;;;1.00;1.00;;;;;;;;;;5139586;27;20202;-64
2023/05/12 00:20:54;;;;;;;1.30;1.20;;;;;;;;;;5141430;27;20261;-64
2023/05/12 00:23:22;;;;;;;0.88;0.88;;;;;;;;;;5140873;27;20202;-64
2023/05/12 00:25:49;;;;;;;1.17;1.10;;;;;;;;;;5140750;27;20230;-64
2023/05/12 00:28:17;;;;;;;1.25;1.20;;;;;;;;;;5140362;27;20202;-63
2023/05/12 00:30:44;;;;;;;1.10;1.10;;;;;;;;;;5139816;27;20202;-65
2023/05/12 00:33:13;;;;;;;1.20;1.10;;;;;;;;;;5140242;27;20213;-64
2023/05/12 00:35:41;;;;;;;1.13;1.13;;;;;;;;;;5140907;27;20202;-64
2023/05/12 00:38:09;;;;;;;1.30;1.20;;;;;;;;;;5140784;27;20202;-64
2023/05/12 00:40:36;;;;;;;1.10;1.10;;;;;;;;;;5140770;27;20217;-64
2023/05/12 00:43:03;;;;;;;1.15;1.15;;;;;;;;;;5140886;27;20203;-64
2023/05/12 00:45:31;;;;;;;1.30;1.20;;;;;;;;;;5140747;27;20230;-65
2023/05/12 00:47:58;;;;;;;1.30;1.20;;;;;;;;;;5140059;27;20229;-63
2023/05/12 00:50:28;;;;;;;1.30;1.20;;;;;;;;;;5140313;27;20206;-65
2023/05/12 00:52:55;;;;;;;1.25;1.10;;;;;;;;;;5140474;27;20280;-65
2023/05/12 00:55:22;;;;;;;1.30;1.20;;;;;;;;;;5139816;27;20550;-65
2023/05/12 00:57:50;;;;;;;1.25;1.20;;;;;;;;;;5140318;27;20570;-65
2023/05/12 01:00:18;;;;;;;1.30;1.23;;;;;;;;;;5140201;27;20558;-65
2023/05/12 01:02:46;;;;;;;1.13;1.10;;;;;;;;;;5140246;27;20620;-65
2023/05/12 01:05:13;;;;;;;1.30;1.20;;;;;;;;;;5140008;27;20226;-64
2023/05/12 01:07:43;;;;;;;1.38;1.27;;;;;;;;;;5139989;27;20210;-64
2023/05/12 01:10:19;;;;;;;1.17;1.15;;;;;;;;;;5139991;27;20570;-64
2023/05/12 01:12:47;;;;;;;1.05;1.02;;;;;;;;;;5139816;27;20413;-64
2023/05/12 01:15:14;;;;;;;1.10;1.10;;;;;;;;;;5140302;27;20208;-65
2023/05/12 01:17:45;;;;;;;1.10;1.00;;;;;;;;;;5139744;27;20225;-64
2023/05/12 01:20:15;;;;;;;1.20;1.00;;;;;;;;;;5140194;27;20202;-64
2023/05/12 01:22:44;;;;;;;1.13;1.00;;;;;;;;;;5139880;27;20247;-64
2023/05/12 01:25:12;;;;;;;1.27;1.17;;;;;;;;;;5139726;27;20234;-65
2023/05/12 01:27:42;;;;;;;0.88;0.88;;;;;;;;;;5139708;27;20221;-64
2023/05/12 01:30:10;;;;;;;1.50;1.40;;;;;;;;;;5139272;27;20209;-64
2023/05/12 01:32:39;;;;;;;1.30;1.20;;;;;;;;;;5139701;27;20213;-64
2023/05/12 01:35:07;;;;;;;1.17;1.10;;;;;;;;;;5139937;27;20298;-64
2023/05/12 01:37:34;;;;;;;1.13;1.02;;;;;;;;;;5139901;27;20224;-65
2023/05/12 01:40:01;;;;;;;1.20;1.20;;;;;;;;;;5139605;27;20214;-64
2023/05/12 01:42:29;;;;;;;1.25;1.15;;;;;;;;;;5139457;27;20213;-64
2023/05/12 01:44:58;;;;;;;1.48;1.38;;;;;;;;;;5139486;27;20222;-64
2023/05/12 01:47:25;;;;;;;1.20;1.20;;;;;;;;;;5139655;27;20207;-63
2023/05/12 01:49:53;;;;;;;1.40;1.30;;;;;;;;;;5139132;27;20203;-64
2023/05/12 01:52:20;;;;;;;1.17;1.15;;;;;;;;;;5139820;27;20214;-64
2023/05/12 01:54:48;;;;;;;1.23;1.20;;;;;;;;;;5139541;27;20205;-64
2023/05/12 01:57:15;;;;;;;1.30;1.20;;;;;;;;;;5139225;27;20202;-65
2023/05/12 01:59:43;;;;;;;1.30;1.20;;;;;;;;;;5139004;27;20210;-64
2023/05/12 02:02:12;;;;;;;1.10;1.10;;;;;;;;;;5139322;27;20300;-64
2023/05/12 02:04:39;;;;;;;1.10;1.10;;;;;;;;;;5139263;27;20250;-64
2023/05/12 02:07:07;;;;;;;1.48;1.38;;;;;;;;;;5139149;27;20202;-64
2023/05/12 02:09:34;;;;;;;1.50;1.40;;;;;;;;;;5139164;27;20223;-64
2023/05/12 02:12:03;;;;;;;1.63;1.10;;;;;;;;;;5139179;27;20202;-64
2023/05/12 02:14:30;;;;;;;1.10;1.10;;;;;;;;;;5139036;27;20508;-64
2023/05/12 02:16:57;;;;;;;1.00;1.00;;;;;;;;;;5138992;27;20221;-64
2023/05/12 02:19:26;;;;;;;1.13;1.13;;;;;;;;;;5139154;27;20229;-64
2023/05/12 02:21:53;;;;;;;1.20;1.10;;;;;;;;;;5139022;28;20210;-64
2023/05/12 02:24:21;;;;;;;1.30;1.10;;;;;;;;;;5138653;28;20221;-65
2023/05/12 02:26:48;;;;;;;1.20;1.20;;;;;;;;;;5138873;27;20722;-63
2023/05/12 02:29:15;;;;;;;1.25;1.20;;;;;;;;;;5139078;28;20202;-64
2023/05/12 02:31:43;;;;;;;1.42;1.33;;;;;;;;;;5138828;28;20202;-65
2023/05/12 02:34:10;;;;;;;1.20;1.20;;;;;;;;;;5138589;28;20578;-64
2023/05/12 02:36:39;;;;;;;1.10;1.10;;;;;;;;;;5138894;28;20202;-64
2023/05/12 02:39:07;;;;;;;1.15;1.15;;;;;;;;;;5138885;28;20210;-65
2023/05/12 02:41:34;;;;;;;1.23;1.20;;;;;;;;;;5139953;27;20602;-64
2023/05/12 02:44:01;;;;;;;1.10;1.10;;;;;;;;;;5143035;27;20214;-65
2023/05/12 02:46:28;;;;;;;1.20;1.20;;;;;;;;;;5142895;27;20202;-64
2023/05/12 02:48:56;;;;;;;1.27;1.17;;;;;;;;;;5142762;27;20209;-65
2023/05/12 02:51:23;;;;;;;1.85;1.30;;;;;;;;;;5142634;27;20212;-64
2023/05/12 02:53:53;;;;;;;1.40;1.30;;;;;;;;;;5142801;27;20209;-64
2023/05/12 02:56:20;;;;;;;1.30;1.20;;;;;;;;;;5142993;27;20202;-64
2023/05/12 02:58:47;;;;;;;1.10;1.10;;;;;;;;;;5142708;27;20594;-64
2023/05/12 03:01:14;;;;;;;1.08;1.08;;;;;;;;;;5142829;27;20209;-64
2023/05/12 03:03:42;;;;;;;1.13;1.10;;;;;;;;;;5142711;27;20687;-64
2023/05/12 03:06:09;;;;;;;0.95;0.95;;;;;;;;;;5142324;27;20232;-64
2023/05/12 03:08:37;;;;;;;1.10;1.10;;;;;;;;;;5142176;27;20225;-64
2023/05/12 03:11:06;;;;;;;1.10;1.10;;;;;;;;;;5142440;27;20212;-64
2023/05/12 03:13:33;;;;;;;1.40;1.30;;;;;;;;;;5142130;27;20217;-64
2023/05/12 03:16:01;;;;;;;1.00;1.00;;;;;;;;;;5142038;27;20190;-64
2023/05/12 03:18:28;;;;;;;1.20;1.10;;;;;;;;;;5142050;27;20250;-64
2023/05/12 03:20:56;;;;;;;1.33;1.25;;;;;;;;;;5141770;27;20237;-64
2023/05/12 03:23:23;;;;;;;1.20;1.20;;;;;;;;;;5142411;27;20233;-64
2023/05/12 03:25:50;;;;;;;1.20;1.10;;;;;;;;;;5141971;27;20272;-63
2023/05/12 03:28:19;;;;;;;1.23;1.13;;;;;;;;;;5142087;27;20305;-64
2023/05/12 03:30:46;;;;;;;1.38;1.27;;;;;;;;;;5141804;27;20203;-64
2023/05/12 03:33:14;;;;;;;1.10;1.10;;;;;;;;;;5141734;27;20198;-64
2023/05/12 03:35:41;;;;;;;1.20;1.10;;;;;;;;;;5141841;27;20198;-64
2023/05/12 03:38:09;;;;;;;1.60;1.25;;;;;;;;;;5141665;27;20203;-63
2023/05/12 03:40:36;;;;;;;1.10;1.10;;;;;;;;;;5142057;27;20202;-64
2023/05/12 03:43:03;;;;;;;1.50;1.20;;;;;;;;;;5140986;27;20485;-64
2023/05/12 03:45:32;;;;;;;1.20;1.10;;;;;;;;;;5141107;27;20233;-65
2023/05/12 03:48:00;;;;;;;1.08;1.08;;;;;;;;;;5141493;27;20217;-64
2023/05/12 03:50:27;;;;;;;1.13;1.13;;;;;;;;;;5141140;27;20213;-64
2023/05/12 03:52:54;;;;;;;1.10;1.10;;;;;;;;;;5140785;27;20210;-64
2023/05/12 03:55:22;;;;;;;1.05;1.05;;;;;;;;;;5141162;27;20208;-64
2023/05/12 03:57:49;;;;;;;1.20;1.20;;;;;;;;;;5140672;27;20330;-66
2023/05/12 04:00:17;;;;;;;1.00;1.00;;;;;;;;;;5140934;27;20202;-64
2023/05/12 04:02:46;;;;;;;1.10;1.10;;;;;;;;;;5141419;27;20508;-64
2023/05/12 04:05:13;;;;;;;1.70;1.20;;;;;;;;;;5141017;27;20237;-64
2023/05/12 04:07:41;;;;;;;1.33;1.20;;;;;;;;;;5140745;27;20213;-64
2023/05/12 04:10:09;;;;;;;1.10;1.10;;;;;;;;;;5141031;27;20585;-65
2023/05/12 04:12:36;;;;;;;1.95;1.20;;;;;;;;;;5141087;27;20209;-64
2023/05/12 04:15:04;;;;;;;1.40;1.30;;;;;;;;;;5141111;27;20475;-63
2023/05/12 04:17:31;;;;;;;1.27;1.20;;;;;;;;;;5141375;27;20217;-64
2023/05/12 04:20:00;;;;;;;1.10;1.10;;;;;;;;;;5140492;27;20202;-65
2023/05/12 04:22:27;;;;;;;1.10;1.10;;;;;;;;;;5140834;27;20237;-63
2023/05/12 04:24:55;;;;;;;1.30;1.20;;;;;;;;;;5139384;27;20225;-64
2023/05/12 04:27:22;;;;;;;1.20;1.10;;;;;;;;;;5139471;27;20202;-65
2023/05/12 04:29:50;;;;;;;1.40;1.30;;;;;;;;;;5140252;27;20209;-65
2023/05/12 04:32:18;;;;;;;1.17;1.08;;;;;;;;;;5139505;27;20198;-65
2023/05/12 04:34:46;;;;;;;1.40;1.30;;;;;;;;;;5139798;27;20214;-64
2023/05/12 04:37:15;;;;;;;1.00;1.00;;;;;;;;;;5139995;27;20274;-65
2023/05/12 04:39:42;;;;;;;1.27;1.17;;;;;;;;;;5140028;27;20202;-65
2023/05/12 04:42:10;;;;;;;1.17;1.17;;;;;;;;;;5139072;27;20202;-64
2023/05/12 04:44:38;;;;;;;1.20;1.20;;;;;;;;;;5138761;27;20202;-64
2023/05/12 04:47:05;;;;;;;1.10;1.10;;;;;;;;;;5138988;27;20208;-64
2023/05/12 04:49:32;;;;;;;1.17;1.17;;;;;;;;;;5138814;27;20267;-64
2023/05/12 04:52:00;;;;;;;1.30;1.20;;;;;;;;;;5138991;27;20203;-63
2023/05/12 04:54:28;;;;;;;1.83;1.30;;;;;;;;;;5139409;27;20472;-64
2023/05/12 04:56:56;;;;;;;1.30;1.20;;;;;;;;;;5138870;27;20217;-64
2023/05/12 04:59:23;;;;;;;1.23;1.20;;;;;;;;;;5138230;27;20201;-64
2023/05/12 05:01:51;;;;;;;1.30;1.20;;;;;;;;;;5138067;27;20497;-64
2023/05/12 05:04:18;;;;;;;1.20;1.10;;;;;;;;;;5137286;27;20209;-64
2023/05/12 05:06:46;;;;;;;1.50;1.40;;;;;;;;;;5137924;27;20226;-64
2023/05/12 05:09:13;;;;;;;1.10;1.10;;;;;;;;;;5137312;27;20499;-64
2023/05/12 05:11:42;;;;;;;1.42;1.33;;;;;;;;;;5137592;27;20266;-64
2023/05/12 05:14:10;;;;;;;1.20;1.20;;;;;;;;;;5137619;27;20209;-64
2023/05/12 05:16:37;;;;;;;1.10;1.10;;;;;;;;;;5137535;27;20217;-64
2023/05/12 05:19:04;;;;;;;1.20;1.20;;;;;;;;;;5137268;27;20217;-64
2023/05/12 05:21:33;;;;;;;1.20;1.20;;;;;;;;;;5137253;27;20206;-65
2023/05/12 05:24:01;;;;;;;1.13;1.13;;;;;;;;;;5137708;27;20575;-65
2023/05/12 05:26:28;;;;;;;1.27;1.25;;;;;;;;;;5136600;27;20248;-64
2023/05/12 05:28:57;;;;;;;1.20;1.10;;;;;;;;;;5137749;27;20231;-65
2023/05/12 05:31:24;;;;;;;1.30;1.30;;;;;;;;;;5137922;27;20203;-64
2023/05/12 05:33:54;;;;;;;1.50;1.40;;;;;;;;;;5137285;27;20202;-64
2023/05/12 05:36:25;;;;;;;1.40;1.30;;;;;;;;;;5137405;27;20201;-64
2023/05/12 05:38:52;;;;;;;1.65;1.50;;;;;;;;;;5136559;27;20209;-64
2023/05/12 05:41:20;;;;;;;2.10;1.88;;;;;;;;;;5136915;27;20290;-64
2023/05/12 05:43:47;;;;;;;3.10;2.30;;;;;;;;;;5136710;27;20601;-64
2023/05/12 05:46:16;;;;;;;5.63;2.92;;;;;;;;;;5136244;27;20222;-64
2023/05/12 05:48:43;;;;;;;5.97;3.53;;;;;;;;;;5136728;27;20302;-65
2023/05/12 05:51:11;;;;;;;7.88;3.35;;;;;;;;;;5136971;27;20206;-64
2023/05/12 05:53:39;;;;;;;7.22;3.72;;;;;;;;;;5136920;27;20216;-64
2023/05/12 05:56:07;;;;;;;8.18;3.85;;;;;;;;;;5136967;27;20246;-64
2023/05/12 05:58:34;;;;;;;6.47;3.70;;;;;;;;;;5136627;27;20206;-64
2023/05/12 06:01:01;;;;;;;8.75;4.13;;;;;;;;;;5136054;27;20206;-64
2023/05/12 06:03:30;;;;;;;8.18;4.57;;;;;;;;;;5135283;27;20198;-64
2023/05/12 06:06:01;;;;;;;9.10;4.50;;;;;;;;;;5136127;27;20236;-65
2023/05/12 06:08:29;;;;;;;9.05;4.43;;;;;;;;;;5136268;27;20205;-65
2023/05/12 06:10:56;;;;;;;11.00;5.28;;;;;;;;;;5135770;27;20687;-65
2023/05/12 06:13:24;;;;;;;10.98;5.00;;;;;;;;;;5116403;27;20291;-65
2023/05/12 06:15:51;;;;;;;12.40;5.65;;;;;;;;;;5116167;28;20205;-64
2023/05/12 06:18:19;;;;;;;11.65;5.20;;;;;;;;;;5116685;28;20217;-64
2023/05/12 06:20:48;;;;;;;11.82;5.85;;;;;;;;;;5116878;28;20535;-64
2023/05/12 06:23:15;;;;;;;11.02;5.65;;;;;;;;;;5116654;28;20210;-64
2023/05/12 06:25:43;;;;;;;11.52;6.15;;;;;;;;;;5116110;27;20230;-64
2023/05/12 06:28:10;;;;;;;11.38;5.55;;;;;;;;;;5115926;28;20199;-64
2023/05/12 06:30:37;;;;;;;9.98;5.90;;;;;;;;;;5116647;28;20265;-64
2023/05/12 06:33:05;;;;;;;10.40;5.68;;;;;;;;;;5116823;28;20195;-64
2023/05/12 06:35:32;;;;;;;13.00;6.00;;;;;;;;;;5116649;28;20203;-64
2023/05/12 06:38:01;;;;;;;9.98;5.32;;;;;;;;;;5116278;28;20199;-64
2023/05/12 06:40:29;;;;;;;12.38;6.45;;;;;;;;;;5115908;28;20215;-64
2023/05/12 06:42:56;;;;;;;14.48;6.00;;;;;;;;;;5115280;28;20213;-64
2023/05/12 06:45:23;;;;;;;11.63;6.30;;;;;;;;;;5115941;28;20210;-64
2023/05/12 06:47:51;;;;;;;11.93;5.97;;;;;;;;;;5115837;28;20467;-64
2023/05/12 06:50:18;;;;;;;10.10;5.82;;;;;;;;;;5114795;28;20293;-64
2023/05/12 06:52:46;;;;;;;12.10;6.50;;;;;;;;;;5115305;28;20209;-65
2023/05/12 06:55:18;;;;;;;10.25;6.13;;;;;;;;;;5116170;28;20235;-64
2023/05/12 06:57:45;;;;;;;13.40;6.43;;;;;;;;;;5115802;28;20213;-63
2023/05/12 07:00:14;;;;;;;14.45;6.28;;;;;;;;;;5116119;28;20203;-64
2023/05/12 07:02:41;;;;;;;11.25;6.10;;;;;;;;;;5115970;28;20199;-63
2023/05/12 07:05:09;;;;;;;9.25;5.50;;;;;;;;;;5116162;28;20207;-64
2023/05/12 07:07:36;;;;;;;13.80;6.38;;;;;;;;;;5115542;28;20227;-64
2023/05/12 07:10:05;;;;;;;11.23;6.63;;;;;;;;;;5114809;28;20203;-64
2023/05/12 07:12:34;;;;;;;10.00;5.68;;;;;;;;;;5115946;28;20203;-64
2023/05/12 07:15:02;;;;;;;11.38;6.10;;;;;;;;;;5116354;28;20202;-64
2023/05/12 07:17:29;;;;;;;9.07;5.88;;;;;;;;;;5115239;28;20194;-64
2023/05/12 07:19:57;;;;;;;11.20;6.38;;;;;;;;;;5115366;28;20203;-65
2023/05/12 07:22:24;;;;;;;10.07;5.50;;;;;;;;;;5115456;28;20203;-65
2023/05/12 07:24:51;;;;;;;11.18;6.20;;;;;;;;;;5114308;27;20211;-65
2023/05/12 07:27:19;;;;;;;11.50;5.75;;;;;;;;;;5116557;28;20227;-65
2023/05/12 07:29:48;;;;;;;10.13;6.13;;;;;;;;;;5119429;28;20203;-65
2023/05/12 07:32:16;;;;;;;10.43;6.03;;;;;;;;;;5118466;28;20203;-64
2023/05/12 07:34:43;;;;;;;10.20;5.90;;;;;;;;;;5118749;28;20290;-64
2023/05/12 07:37:11;;;;;;;10.38;6.10;;;;;;;;;;5118718;28;20533;-65
2023/05/12 07:39:38;;;;;;;8.88;5.50;;;;;;;;;;5119107;28;20202;-65
2023/05/12 07:42:06;;;;;;;8.07;5.07;;;;;;;;;;5118514;28;20225;-65
2023/05/12 07:44:33;;;;;;;10.32;5.70;;;;;;;;;;5118940;28;20217;-65
2023/05/12 07:47:02;;;;;;;8.18;5.15;;;;;;;;;;5118525;28;20228;-65
2023/05/12 07:49:30;;;;;;;9.13;5.45;;;;;;;;;;5118049;28;20593;-65
2023/05/12 07:51:57;;;;;;;8.63;5.05;;;;;;;;;;5117409;28;20596;-64
2023/05/12 07:54:25;;;;;;;9.95;5.72;;;;;;;;;;5117822;28;20218;-65
2023/05/12 07:56:52;;;;;;;9.00;5.63;;;;;;;;;;5118818;28;20451;-66
2023/05/12 07:59:20;;;;;;;9.25;5.45;;;;;;;;;;5118674;28;20206;-65
2023/05/12 08:01:47;;;;;;;7.82;5.60;;;;;;;;;;5118010;28;20214;-65
2023/05/12 08:04:16;;;;;;;6.88;4.85;;;;;;;;;;5118853;28;20211;-65
2023/05/12 08:06:44;;;;;;;8.18;5.22;;;;;;;;;;5118868;28;20226;-64
2023/05/12 08:09:11;;;;;;;6.93;5.30;;;;;;;;;;5118895;28;20194;-65
2023/05/12 08:11:39;;;;;;;7.63;5.00;;;;;;;;;;5118076;28;20203;-65
2023/05/12 08:14:06;;;;;;;8.85;5.38;;;;;;;;;;5118440;28;20214;-65
2023/05/12 08:16:33;;;;;;;7.68;5.05;;;;;;;;;;5118967;28;20205;-65
2023/05/12 08:19:01;;;;;;;6.70;4.75;;;;;;;;;;5118418;28;20206;-64
2023/05/12 08:21:30;;;;;;;8.77;4.93;;;;;;;;;;5118374;28;20202;-65
2023/05/12 08:23:58;;;;;;;7.00;4.47;;;;;;;;;;5118599;28;20210;-64
2023/05/12 08:26:25;;;;;;;7.75;4.80;;;;;;;;;;5114877;27;20227;-65
2023/05/12 08:28:53;;;;;;;5.68;4.68;;;;;;;;;;5116827;28;20559;-64
2023/05/12 08:31:20;;;;;;;7.47;4.95;;;;;;;;;;5116398;28;20306;-65
2023/05/12 08:33:48;;;;;;;7.53;4.90;;;;;;;;;;5116554;28;20203;-65
2023/05/12 08:36:15;;;;;;;6.65;4.57;;;;;;;;;;5117214;28;20210;-65
2023/05/12 08:38:44;;;;;;;7.15;4.75;;;;;;;;;;5115935;28;20293;-65
2023/05/12 08:41:13;;;;;;;6.90;4.82;;;;;;;;;;5116714;28;20214;-64
2023/05/12 08:43:44;;;;;;;6.35;4.25;;;;;;;;;;5116621;28;20198;-65
2023/05/12 08:46:12;;;;;;;6.75;4.45;;;;;;;;;;5116559;28;20641;-65
2023/05/12 08:48:40;;;;;;;5.72;4.43;;;;;;;;;;5116923;28;20502;-65
2023/05/12 08:51:10;;;;;;;5.95;4.20;;;;;;;;;;5115630;28;20195;-65
2023/05/12 08:53:38;;;;;;;6.00;4.47;;;;;;;;;;5115692;28;20620;-64
2023/05/12 08:56:08;;;;;;;5.57;4.63;;;;;;;;;;5116687;28;20476;-65
2023/05/12 08:58:36;;;;;;;7.22;4.43;;;;;;;;;;5116283;28;20218;-65
2023/05/12 09:01:05;;;;;;;6.63;4.25;;;;;;;;;;5115623;28;20195;-64
2023/05/12 09:03:32;;;;;;;6.00;4.43;;;;;;;;;;5116083;28;20245;-64
2023/05/12 09:06:00;;;;;;;5.53;4.10;;;;;;;;;;5115589;28;20316;-64
2023/05/12 09:08:29;;;;;;;5.82;4.00;;;;;;;;;;5114814;28;20334;-65
2023/05/12 09:10:56;;;;;;;5.90;4.30;;;;;;;;;;5115289;28;20203;-65
2023/05/12 09:13:28;;;;;;;6.07;4.22;;;;;;;;;;5115734;28;20202;-64
2023/05/12 09:15:57;;;;;;;6.85;4.50;;;;;;;;;;5114852;28;20536;-65
2023/05/12 09:18:25;;;;;;;5.10;3.55;;;;;;;;;;5113190;28;20210;-64
2023/05/12 09:20:52;;;;;;;5.10;4.03;;;;;;;;;;5115686;28;20203;-65
2023/05/12 09:23:20;;;;;;;5.97;4.20;;;;;;;;;;5115286;28;20493;-65
2023/05/12 09:25:48;;;;;;;4.82;3.80;;;;;;;;;;5115151;27;20498;-64
2023/05/12 09:28:15;;;;;;;4.65;4.07;;;;;;;;;;5115169;28;20227;-64
2023/05/12 09:30:44;;;;;;;5.57;4.10;;;;;;;;;;5114014;28;20207;-65
2023/05/12 09:33:13;;;;;;;5.47;4.03;;;;;;;;;;5114921;28;20486;-64
2023/05/12 09:35:41;;;;;;;5.60;4.05;;;;;;;;;;5115433;28;20263;-65
2023/05/12 09:38:09;;;;;;;5.65;4.10;;;;;;;;;;5114563;28;20190;-64
2023/05/12 09:40:36;;;;;;;4.82;4.00;;;;;;;;;;5114367;28;20199;-64
2023/05/12 09:43:04;;;;;;;4.55;3.65;;;;;;;;;;5114288;28;20195;-65
2023/05/12 09:45:34;;;;;;;4.70;3.63;;;;;;;;;;5110798;28;20228;-64
2023/05/12 09:48:10;;;;;;;5.38;3.80;;;;;;;;;;5093056;28;20238;-64
2023/05/12 09:50:44;;;;;;;4.65;3.67;;;;;;;;;;5094730;28;20248;-64
2023/05/12 09:53:11;;;;;;;5.40;3.95;;;;;;;;;;5093797;28;20218;-64
2023/05/12 09:55:39;;;;;;;7.38;4.00;;;;;;;;;;5095205;28;20204;-64
2023/05/12 09:58:09;;;;;;;4.70;3.72;;;;;;;;;;5097647;28;20195;-65
2023/05/12 10:00:38;;;;;;;5.43;3.90;;;;;;;;;;5113712;28;20626;-65
2023/05/12 10:03:08;;;;;;;4.50;3.67;;;;;;;;;;5113274;28;20211;-65
2023/05/12 10:05:39;;;;;;;5.22;3.83;;;;;;;;;;5112965;28;20289;-65
2023/05/12 10:08:08;;;;;;;6.72;4.15;;;;;;;;;;5113159;28;20223;-65
2023/05/12 10:10:35;;;;;;;4.53;3.58;;;;;;;;;;5113369;28;20230;-65
2023/05/12 10:13:04;;;;;;;4.43;3.78;;;;;;;;;;5113275;28;20397;-64
2023/05/12 10:15:32;;;;;;;3.95;3.55;;;;;;;;;;5112686;28;20202;-65
2023/05/12 10:18:00;;;;;;;4.07;3.50;;;;;;;;;;5113387;28;20607;-64
2023/05/12 10:20:28;;;;;;;3.78;3.35;;;;;;;;;;5111674;28;20199;-64
2023/05/12 10:22:58;;;;;;;5.63;3.67;;;;;;;;;;5112814;28;20206;-65
2023/05/12 10:25:26;;;;;;;5.40;3.90;;;;;;;;;;5117843;28;20230;-64
2023/05/12 10:27:54;;;;;;;4.95;3.58;;;;;;;;;;5132432;27;20222;-64
2023/05/12 10:30:21;;;;;;;5.47;3.45;;;;;;;;;;5133058;27;20378;-64
2023/05/12 10:32:49;;;;;;;4.88;3.55;;;;;;;;;;5132207;27;20313;-64
2023/05/12 10:35:17;;;;;;;5.00;3.50;;;;;;;;;;5133762;27;20267;-64
2023/05/12 10:37:47;;;;;;;4.68;3.38;;;;;;;;;;5133112;27;20206;-64
2023/05/12 10:40:25;;;;;;;4.35;3.75;;;;;;;;;;5132417;27;20296;-64
2023/05/12 10:42:53;;;;;;;4.72;3.60;;;;;;;;;;5133887;27;20210;-64
2023/05/12 10:45:20;;;;;;;5.00;3.78;;;;;;;;;;5133230;27;20236;-65
2023/05/12 10:47:48;;;;;;;4.13;3.70;;;;;;;;;;5132460;27;20226;-64
2023/05/12 10:50:15;;;;;;;5.47;3.70;;;;;;;;;;5132345;27;20504;-64
2023/05/12 10:52:53;;;;;;;3.80;3.40;;;;;;;;;;5131285;27;20213;-64
2023/05/12 10:55:31;;;;;;;3.67;3.30;;;;;;;;;;5132465;27;20202;-63
2023/05/12 10:58:07;;;;;;;4.68;3.53;;;;;;;;;;5133156;27;20189;-64
2023/05/12 11:00:43;;;;;;;4.53;3.25;;;;;;;;;;5131523;27;20557;-64
2023/05/12 11:03:12;;;;;;;3.80;3.30;;;;;;;;;;5133615;27;20229;-64
2023/05/12 11:05:40;;;;;;;3.88;3.13;;;;;;;;;;5136045;27;20198;-64
2023/05/12 11:08:07;;;;;;;3.60;3.15;;;;;;;;;;5136675;27;20320;-63
2023/05/12 11:10:35;;;;;;;4.18;3.30;;;;;;;;;;5134794;27;20213;-64
2023/05/12 11:13:03;;;;;;;4.32;3.33;;;;;;;;;;5136167;27;20519;-65
2023/05/12 11:15:32;;;;;;;4.43;3.20;;;;;;;;;;5137354;27;20274;-65
2023/05/12 11:18:02;;;;;;;3.67;3.25;;;;;;;;;;5136245;27;20209;-65
2023/05/12 11:20:30;;;;;;;3.47;2.80;;;;;;;;;;5137157;27;20224;-65
2023/05/12 11:22:57;;;;;;;3.08;2.78;;;;;;;;;;5135980;27;20207;-64
2023/05/12 11:25:27;;;;;;;3.42;3.05;;;;;;;;;;5137506;27;20338;-64
2023/05/12 11:27:54;;;;;;;3.88;3.03;;;;;;;;;;5136678;27;20779;-65
2023/05/12 11:30:21;;;;;;;3.33;3.03;;;;;;;;;;5135710;27;20195;-63
2023/05/12 11:33:00;;;;;;;3.38;2.85;;;;;;;;;;5136521;27;20202;-64
2023/05/12 11:35:30;;;;;;;4.05;3.10;;;;;;;;;;5137414;27;20193;-63
2023/05/12 11:37:58;;;;;;;4.63;3.42;;;;;;;;;;5136301;27;20233;-64
2023/05/12 11:40:25;;;;;;;3.78;3.22;;;;;;;;;;5134479;27;20213;-64
2023/05/12 11:42:54;;;;;;;2.90;2.65;;;;;;;;;;5136499;27;20475;-64
2023/05/12 11:45:22;;;;;;;2.97;2.67;;;;;;;;;;5136271;27;20244;-64
2023/05/12 11:47:51;;;;;;;3.25;2.88;;;;;;;;;;5134894;27;20491;-64
2023/05/12 11:50:22;;;;;;;3.20;2.88;;;;;;;;;;5135662;27;20602;-64
2023/05/12 11:52:50;;;;;;;2.95;2.60;;;;;;;;;;5136552;27;20617;-64
2023/05/12 11:55:22;;;;;;;3.38;3.03;;;;;;;;;;5136178;27;20465;-64
2023/05/12 11:57:57;;;;;;;3.17;2.85;;;;;;;;;;5135677;27;20558;-64
2023/05/12 12:00:28;;;;;;;3.30;3.00;;;;;;;;;;5134916;27;20595;-64
2023/05/12 12:03:07;;;;;;;3.05;2.75;;;;;;;;;;5136232;27;20212;-64
2023/05/12 12:05:34;;;;;;;3.72;2.75;;;;;;;;;;5136796;27;20198;-64
2023/05/12 12:08:08;;;;;;;3.30;3.00;;;;;;;;;;5136098;27;20598;-64
2023/05/12 12:10:36;;;;;;;3.13;2.63;;;;;;;;;;5136115;27;20261;-65
2023/05/12 12:13:04;;;;;;;2.85;2.65;;;;;;;;;;5136014;27;20496;-64
2023/05/12 12:15:32;;;;;;;2.75;2.50;;;;;;;;;;5134629;27;20198;-64
2023/05/12 12:17:59;;;;;;;3.08;2.80;;;;;;;;;;5134851;27;20198;-64
2023/05/12 12:20:28;;;;;;;3.38;3.08;;;;;;;;;;5135912;27;20195;-64
2023/05/12 12:22:55;;;;;;;2.75;2.55;;;;;;;;;;5137785;27;20198;-64
2023/05/12 12:25:22;;;;;;;3.13;2.78;;;;;;;;;;5135354;27;20230;-67
2023/05/12 12:27:51;;;;;;;3.10;2.80;;;;;;;;;;5135243;27;20223;-65
2023/05/12 12:30:19;;;;;;;3.30;3.00;;;;;;;;;;5136904;27;20202;-65
2023/05/12 12:32:47;;;;;;;3.03;2.72;;;;;;;;;;5135790;27;20194;-64
2023/05/12 12:35:15;;;;;;;3.08;2.63;;;;;;;;;;5136005;27;20529;-66
2023/05/12 12:37:44;;;;;;;3.08;2.60;;;;;;;;;;5135604;27;20473;-64
2023/05/12 12:40:12;;;;;;;2.83;2.42;;;;;;;;;;5135440;27;20360;-64
2023/05/12 12:42:40;;;;;;;2.85;2.63;;;;;;;;;;5134560;27;20456;-65
2023/05/12 12:45:08;;;;;;;3.80;2.63;;;;;;;;;;5134153;27;20202;-64
2023/05/12 12:47:36;;;;;;;2.70;2.50;;;;;;;;;;5134289;27;20339;-64
2023/05/12 12:50:04;;;;;;;2.70;2.50;;;;;;;;;;5133538;27;20234;-64
2023/05/12 12:52:31;;;;;;;2.92;2.63;;;;;;;;;;5134644;27;20579;-64
2023/05/12 12:55:01;;;;;;;3.20;2.70;;;;;;;;;;5135476;27;20222;-64
2023/05/12 12:57:28;;;;;;;2.60;2.40;;;;;;;;;;5134997;27;20191;-64
2023/05/12 12:59:56;;;;;;;2.78;2.58;;;;;;;;;;5135755;27;20206;-64
2023/05/12 13:02:23;;;;;;;2.97;2.78;;;;;;;;;;5135052;27;20358;-65
2023/05/12 13:04:50;;;;;;;2.55;2.35;;;;;;;;;;5133371;27;20301;-64
2023/05/12 13:07:18;;;;;;;2.70;2.50;;;;;;;;;;5133673;27;20198;-64
2023/05/12 13:09:45;;;;;;;2.80;2.60;;;;;;;;;;5133031;27;20201;-64
2023/05/12 13:12:14;;;;;;;2.78;2.58;;;;;;;;;;5133758;27;20203;-65
2023/05/12 13:14:41;;;;;;;2.88;2.30;;;;;;;;;;5134380;27;20238;-65
2023/05/12 13:17:09;;;;;;;2.83;2.60;;;;;;;;;;5134123;27;20210;-65
2023/05/12 13:19:36;;;;;;;2.50;2.30;;;;;;;;;;5134396;27;20625;-66
2023/05/12 13:22:03;;;;;;;2.80;2.53;;;;;;;;;;5134188;27;20210;-66
2023/05/12 13:24:31;;;;;;;2.70;2.50;;;;;;;;;;5135088;27;20206;-66
2023/05/12 13:26:59;;;;;;;2.88;2.67;;;;;;;;;;5133479;27;20257;-66
2023/05/12 13:29:27;;;;;;;2.70;2.50;;;;;;;;;;5134183;27;20218;-66
2023/05/12 13:31:55;;;;;;;2.85;2.65;;;;;;;;;;5135194;27;20199;-65
2023/05/12 13:34:22;;;;;;;2.67;2.47;;;;;;;;;;5133215;27;20268;-66
2023/05/12 13:36:49;;;;;;;2.75;2.55;;;;;;;;;;5132583;27;20210;-66
2023/05/12 13:39:17;;;;;;;2.80;2.60;;;;;;;;;;5133209;27;20497;-66
2023/05/12 13:41:44;;;;;;;3.28;2.50;;;;;;;;;;5134752;27;20209;-66
2023/05/12 13:44:11;;;;;;;2.45;2.25;;;;;;;;;;5133718;27;20213;-66
2023/05/12 13:46:40;;;;;;;2.70;2.40;;;;;;;;;;5133474;27;20209;-66
2023/05/12 13:49:07;;;;;;;2.50;2.30;;;;;;;;;;5132466;27;20260;-65
2023/05/12 13:51:35;;;;;;;2.90;2.58;;;;;;;;;;5132876;27;20263;-66
2023/05/12 13:54:02;;;;;;;2.72;2.53;;;;;;;;;;5133550;27;20313;-66
2023/05/12 13:56:30;;;;;;;2.53;2.33;;;;;;;;;;5133622;27;20601;-66
2023/05/12 13:58:57;;;;;;;2.80;2.60;;;;;;;;;;5133466;27;20225;-66
2023/05/12 14:01:24;;;;;;;2.80;2.60;;;;;;;;;;5132266;27;20198;-65
2023/05/12 14:03:53;;;;;;;2.70;2.50;;;;;;;;;;5132918;27;20194;-65
2023/05/12 14:06:21;;;;;;;2.65;2.45;;;;;;;;;;5133213;27;20217;-66
2023/05/12 14:08:48;;;;;;;2.30;2.20;;;;;;;;;;5132667;27;20222;-65
2023/05/12 14:11:15;;;;;;;2.50;2.30;;;;;;;;;;5133384;27;20225;-66
2023/05/12 14:13:43;;;;;;;2.60;2.40;;;;;;;;;;5132145;27;20294;-66
2023/05/12 14:16:12;;;;;;;2.90;2.30;;;;;;;;;;5133465;27;20465;-65
2023/05/12 14:18:40;;;;;;;2.50;2.22;;;;;;;;;;5133273;27;20478;-67
2023/05/12 14:21:08;;;;;;;2.15;2.05;;;;;;;;;;5134247;27;20206;-65
2023/05/12 14:23:36;;;;;;;2.70;2.50;;;;;;;;;;5135057;27;20287;-65
2023/05/12 14:26:04;;;;;;;2.63;2.42;;;;;;;;;;5133347;27;20309;-65
2023/05/12 14:28:31;;;;;;;2.65;2.45;;;;;;;;;;5133892;28;20230;-63
2023/05/12 14:30:59;;;;;;;2.42;2.22;;;;;;;;;;5133117;27;20251;-64
2023/05/12 14:33:26;;;;;;;2.70;2.50;;;;;;;;;;5133225;27;20500;-64
2023/05/12 14:35:53;;;;;;;2.65;2.45;;;;;;;;;;5131932;27;20202;-64
2023/05/12 14:38:22;;;;;;;2.78;2.50;;;;;;;;;;5135966;27;20296;-64
2023/05/12 14:40:49;;;;;;;2.75;2.33;;;;;;;;;;5137599;27;20209;-64
2023/05/12 14:43:17;;;;;;;2.60;2.40;;;;;;;;;;5137481;27;20200;-64
2023/05/12 14:45:45;;;;;;;2.38;2.28;;;;;;;;;;5138753;27;20589;-65